Time;durP1;ratioP1;P1;durP2;ratioP2;P2;SDS_P1;SDS_P2;PMS_P1;PMS_P2;Temp;Humidity;BMP_temperature;BMP_pressure;BME280_temperature;BME280_humidity;BME280_pressure;Samples;Min_cycle;Max_cycle;Signal;HPM_P1;HPM_P2
2022/05/19 00:02:09;;;;;;;1.50;1.00;;;;;;;8.98;100.00;95495.78;5091365;28;20171;-61
2022/05/19 00:04:35;;;;;;;2.87;1.20;;;;;;;9.08;100.00;95528.06;5092589;28;20196;-59
2022/05/19 00:07:01;;;;;;;4.53;1.77;;;;;;;9.13;100.00;95517.63;5090959;28;20191;-61
2022/05/19 00:09:27;;;;;;;2.70;1.40;;;;;;;9.18;100.00;95535.88;5092681;28;20199;-62
2022/05/19 00:11:55;;;;;;;3.43;1.37;;;;;;;9.30;100.00;95524.94;5092394;28;20180;-58
2022/05/19 00:14:21;;;;;;;2.93;2.10;;;;;;;9.18;100.00;95523.19;5092550;28;20218;-62
2022/05/19 00:16:47;;;;;;;2.00;1.10;;;;;;;8.87;100.00;95495.66;5092202;28;20184;-61
2022/05/19 00:19:15;;;;;;;4.33;1.57;;;;;;;9.05;100.00;95524.91;5092363;28;20193;-60
2022/05/19 00:21:42;;;;;;;3.43;1.50;;;;;;;8.92;100.00;95513.94;5092039;28;20183;-62
2022/05/19 00:24:08;;;;;;;1.87;1.37;;;;;;;8.97;100.00;95502.56;5092417;28;20200;-58
2022/05/19 00:26:34;;;;;;;4.80;1.70;;;;;;;8.89;100.00;95507.31;5092037;28;20186;-59
2022/05/19 00:28:59;;;;;;;4.80;1.53;;;;;;;8.97;100.00;95514.44;5091912;28;20231;-59
2022/05/19 00:31:26;;;;;;;4.93;2.00;;;;;;;9.18;100.00;95520.66;5092377;28;20185;-60
2022/05/19 00:33:52;;;;;;;9.67;2.23;;;;;;;9.19;100.00;95518.00;5096439;28;20208;-61
2022/05/19 00:36:19;;;;;;;3.30;1.77;;;;;;;9.20;100.00;95521.38;5096302;28;20230;-60
2022/05/19 00:38:46;;;;;;;7.53;2.20;;;;;;;9.22;100.00;95524.63;5095760;28;20609;-59
2022/05/19 00:41:13;;;;;;;4.87;2.17;;;;;;;9.23;100.00;95518.66;5096050;28;20188;-58
2022/05/19 00:43:41;;;;;;;9.03;2.00;;;;;;;9.09;100.00;95511.91;5095790;28;20593;-58
2022/05/19 00:46:12;;;;;;;3.57;1.97;;;;;;;9.21;100.00;95521.25;5096233;28;20195;-63
2022/05/19 00:48:44;;;;;;;3.83;2.07;;;;;;;9.25;100.00;95517.59;5096065;28;20279;-59
2022/05/19 00:51:10;;;;;;;3.53;2.00;;;;;;;9.31;100.00;95524.81;5101064;22;20227;-61
2022/05/19 00:53:49;;;;;;;2.37;1.47;;;;;;;9.41;100.00;95534.38;5095621;28;20212;-62
2022/05/19 00:56:41;;;;;;;4.43;1.80;;;;;;;9.40;100.00;95517.50;5095976;28;20177;-59
2022/05/19 00:59:10;;;;;;;2.33;1.90;;;;;;;9.76;100.00;95550.59;5095756;28;20673;-62
2022/05/19 01:01:40;;;;;;;3.93;1.83;;;;;;;9.64;100.00;95546.34;5095766;28;20180;-58
2022/05/19 01:04:13;;;;;;;5.37;2.43;;;;;;;9.20;100.00;95526.44;5095890;28;20583;-60
2022/05/19 01:06:42;;;;;;;1.87;1.67;;;;;;;9.01;100.00;95520.91;5116946;22;20245;-58
2022/05/19 01:09:12;;;;;;;3.47;2.20;;;;;;;9.08;100.00;95529.78;5095613;28;20196;-63
2022/05/19 01:11:38;;;;;;;5.77;1.87;;;;;;;9.14;100.00;95537.00;5095667;28;20329;-61
2022/05/19 01:14:05;;;;;;;6.13;2.20;;;;;;;9.26;100.00;95543.78;5095284;28;20242;-61
2022/05/19 01:16:32;;;;;;;4.37;1.93;;;;;;;9.23;100.00;95544.81;5095507;28;20200;-58
2022/05/19 01:18:58;;;;;;;2.40;2.03;;;;;;;9.12;100.00;95538.81;5095436;28;20195;-60
2022/05/19 01:21:28;;;;;;;2.17;1.80;;;;;;;9.40;100.00;95560.66;5095169;28;20267;-61
2022/05/19 01:24:32;;;;;;;5.67;1.97;;;;;;;9.51;100.00;95561.59;5095308;28;20271;-60
2022/05/19 01:26:57;;;;;;;3.10;2.00;;;;;;;9.32;100.00;95551.00;5081512;28;20235;-59
2022/05/19 01:29:27;;;;;;;4.27;2.10;;;;;;;9.36;100.00;95560.03;5095074;28;20725;-58
2022/05/19 01:32:02;;;;;;;2.13;1.93;;;;;;;9.28;100.00;95550.41;5093733;28;20184;-57
2022/05/19 01:34:32;;;;;;;3.63;1.60;;;;;;;9.19;100.00;95563.66;5094846;28;20208;-60
2022/05/19 01:36:58;;;;;;;2.97;1.80;;;;;;;9.10;100.00;95564.28;5094979;28;20185;-60
2022/05/19 01:39:29;;;;;;;3.67;1.87;;;;;;;9.09;100.00;95564.38;5094943;28;20199;-57
2022/05/19 01:42:21;;;;;;;2.60;1.43;;;;;;;9.17;100.00;95568.03;5095024;28;20181;-62
2022/05/19 01:45:08;;;;;;;1.93;1.73;;;;;;;9.14;100.00;95575.03;5093972;28;20634;-57
2022/05/19 01:47:55;;;;;;;3.13;1.50;;;;;;;8.81;100.00;95587.31;5094752;28;20200;-61
2022/05/19 01:50:30;;;;;;;3.97;1.57;;;;;;;8.61;100.00;95555.59;5094750;28;20204;-59
2022/05/19 01:53:24;;;;;;;3.80;1.57;;;;;;;8.51;100.00;95566.41;5095186;28;20676;-62
2022/05/19 01:55:55;;;;;;;2.20;1.30;;;;;;;8.71;100.00;95571.88;5093662;28;20183;-61
2022/05/19 01:58:30;;;;;;;4.70;1.80;;;;;;;8.78;100.00;95568.06;5095052;28;20196;-57
2022/05/19 02:00:59;;;;;;;1.83;1.50;;;;;;;8.75;100.00;95564.88;5094629;28;20160;-59
2022/05/19 02:03:48;;;;;;;3.43;1.50;;;;;;;8.63;100.00;95555.50;5095036;28;20227;-59
2022/05/19 02:06:17;;;;;;;2.50;1.60;;;;;;;8.64;100.00;95569.81;5093205;28;20545;-60
2022/05/19 02:08:51;;;;;;;2.63;1.80;;;;;;;8.74;100.00;95564.09;5094512;28;20215;-63
2022/05/19 02:11:23;;;;;;;5.17;1.67;;;;;;;8.81;100.00;95577.97;5094166;28;20169;-59
2022/05/19 02:13:49;;;;;;;1.63;1.23;;;;;;;8.78;100.00;95573.13;5094164;28;20210;-57
2022/05/19 02:16:17;;;;;;;2.10;1.90;;;;;;;8.88;100.00;95566.56;5092882;28;20176;-58
2022/05/19 02:18:44;;;;;;;13.77;1.90;;;;;;;8.94;100.00;95572.97;5094280;28;20203;-60
2022/05/19 02:21:10;;;;;;;6.13;2.27;;;;;;;8.90;100.00;95569.00;5094405;28;20557;-59
2022/05/19 02:23:36;;;;;;;3.63;2.40;;;;;;;8.92;100.00;95578.13;5094608;28;20204;-61
2022/05/19 02:26:02;;;;;;;3.27;2.33;;;;;;;8.86;100.00;95562.50;5092918;28;20591;-61
2022/05/19 02:28:36;;;;;;;4.10;3.00;;;;;;;8.89;100.00;95563.09;5094644;28;20235;-59
2022/05/19 02:31:02;;;;;;;5.10;3.23;;;;;;;8.89;100.00;95588.44;5094202;28;20164;-63
2022/05/19 02:33:28;;;;;;;4.37;3.37;;;;;;;8.86;100.00;95582.78;5094476;28;20219;-59
2022/05/19 02:35:53;;;;;;;5.80;3.33;;;;;;;8.86;100.00;95582.78;5092695;28;20184;-61
2022/05/19 02:38:20;;;;;;;4.87;3.10;;;;;;;8.90;100.00;95579.97;5093808;28;20288;-60
2022/05/19 02:40:46;;;;;;;11.67;3.43;;;;;;;8.80;100.00;95578.91;5092435;28;20183;-59
2022/05/19 02:43:13;;;;;;;4.00;3.33;;;;;;;8.77;100.00;95571.47;5094259;28;20201;-59
2022/05/19 02:45:39;;;;;;;4.73;3.60;;;;;;;9.02;100.00;95575.81;5092578;28;20216;-60
2022/05/19 02:48:07;;;;;;;9.23;3.53;;;;;;;9.06;100.00;95585.69;5094327;28;20223;-61
2022/05/19 02:50:32;;;;;;;6.30;3.73;;;;;;;8.69;100.00;95571.16;5093737;28;20657;-59
2022/05/19 02:52:58;;;;;;;5.87;3.73;;;;;;;8.77;100.00;95588.41;5094135;28;20227;-60
2022/05/19 02:55:24;;;;;;;7.77;3.57;;;;;;;8.80;100.00;95589.06;5093370;28;20300;-58
2022/05/19 02:57:50;;;;;;;5.30;3.67;;;;;;;8.72;100.00;95590.44;5093923;28;20200;-58
2022/05/19 03:00:20;;;;;;;5.77;3.50;;;;;;;8.68;100.00;95582.22;5093429;28;20681;-59
2022/05/19 03:02:45;;;;;;;5.40;3.27;;;;;;;8.80;100.00;95585.69;5093553;28;20631;-62
2022/05/19 03:05:14;;;;;;;9.93;4.00;;;;;;;8.89;100.00;95580.03;5093388;28;20173;-63
2022/05/19 03:07:40;;;;;;;4.17;3.53;;;;;;;8.94;100.00;95586.47;5093487;28;20231;-59
2022/05/19 03:10:06;;;;;;;6.40;3.43;;;;;;;8.89;100.00;95590.16;5091988;28;20223;-60
2022/05/19 03:12:33;;;;;;;7.03;3.40;;;;;;;8.83;100.00;95582.94;5093639;28;20267;-61
2022/05/19 03:14:58;;;;;;;6.23;3.63;;;;;;;8.86;100.00;95592.91;5093312;28;20283;-60
2022/05/19 03:17:24;;;;;;;7.70;3.83;;;;;;;8.76;100.00;95586.78;5093522;28;20272;-59
2022/05/19 03:19:53;;;;;;;5.23;3.50;;;;;;;8.87;100.00;95594.53;5093277;28;20727;-60
2022/05/19 03:22:19;;;;;;;7.30;3.30;;;;;;;8.73;100.00;95586.97;5093247;28;20646;-62
2022/05/19 03:24:44;;;;;;;6.60;3.53;;;;;;;8.87;100.00;95594.53;5093303;28;20699;-58
2022/05/19 03:27:10;;;;;;;4.77;3.30;;;;;;;8.92;100.00;95590.00;5093061;28;20275;-59
2022/05/19 03:29:36;;;;;;;8.60;2.50;;;;;;;9.00;100.00;95606.34;5092898;28;20207;-60
2022/05/19 03:32:01;;;;;;;7.63;3.70;;;;;;;9.07;100.00;95606.78;5091841;28;20199;-59
2022/05/19 03:34:27;;;;;;;5.23;3.70;;;;;;;8.89;100.00;95600.31;5092594;28;20212;-58
2022/05/19 03:36:53;;;;;;;4.53;3.73;;;;;;;8.90;100.00;95607.03;5092981;28;20193;-59
2022/05/19 03:39:19;;;;;;;6.77;4.07;;;;;;;8.64;100.00;95602.75;5092660;28;20258;-57
2022/05/19 03:41:44;;;;;;;8.77;3.63;;;;;;;8.72;100.00;95615.78;5093051;28;20267;-57
2022/05/19 03:44:10;;;;;;;5.40;4.00;;;;;;;9.01;100.00;95624.91;5092636;28;20617;-59
2022/05/19 03:46:36;;;;;;;6.30;4.73;;;;;;;9.08;100.00;95609.22;5092610;28;20241;-59
2022/05/19 03:49:02;;;;;;;7.00;5.07;;;;;;;9.03;100.00;95616.28;5092489;28;20257;-59
2022/05/19 03:51:32;;;;;;;9.03;4.80;;;;;;;8.88;100.00;95619.00;5092454;28;20168;-59
2022/05/19 03:53:58;;;;;;;9.70;5.17;;;;;;;8.85;100.00;95621.69;5092585;28;20580;-61
2022/05/19 03:56:23;;;;;;;9.70;4.97;;;;;;;9.01;100.00;95625.72;5092623;28;20642;-59
2022/05/19 03:58:50;;;;;;;7.27;4.80;;;;;;;9.13;100.00;95627.47;5092196;28;20207;-57
2022/05/19 04:01:17;;;;;;;10.07;6.80;;;;;;;9.41;100.00;95620.66;5092227;28;20553;-61
2022/05/19 04:03:43;;;;;;;11.37;6.77;;;;;;;9.22;100.00;95634.53;5090830;28;20204;-58
2022/05/19 04:06:08;;;;;;;11.90;7.40;;;;;;;8.94;100.00;95636.34;5092123;28;20254;-59
2022/05/19 04:08:34;;;;;;;9.63;7.50;;;;;;;8.97;100.00;95641.22;5092670;28;20265;-58
2022/05/19 04:10:59;;;;;;;8.97;7.17;;;;;;;9.25;100.00;95638.59;5092163;28;20183;-62
2022/05/19 04:13:25;;;;;;;10.03;7.00;;;;;;;9.25;100.00;95634.31;5092646;28;20204;-60
2022/05/19 04:15:50;;;;;;;8.97;6.63;;;;;;;9.24;100.00;95639.50;5092155;28;20642;-59
2022/05/19 04:18:16;;;;;;;11.50;6.90;;;;;;;9.20;100.00;95643.13;5092491;28;20273;-57
2022/05/19 04:20:43;;;;;;;15.00;7.40;;;;;;;9.16;100.00;95645.06;5092051;28;20204;-63
2022/05/19 04:23:10;;;;;;;8.90;6.83;;;;;;;8.98;100.00;95642.84;5092631;28;20223;-57
2022/05/19 04:25:36;;;;;;;8.93;6.87;;;;;;;9.13;100.00;95652.06;5091085;28;20203;-61
2022/05/19 04:28:02;;;;;;;12.83;6.83;;;;;;;8.96;100.00;95645.50;5090942;28;20265;-57
2022/05/19 04:30:28;;;;;;;9.47;6.50;;;;;;;9.02;100.00;95644.28;5092073;28;20621;-61
2022/05/19 04:32:53;;;;;;;10.90;7.17;;;;;;;9.36;100.00;95645.50;5092492;28;20708;-60
2022/05/19 04:35:19;;;;;;;14.63;7.23;;;;;;;9.53;100.00;95640.16;5091966;28;20655;-59
2022/05/19 04:37:46;;;;;;;8.03;6.27;;;;;;;9.85;100.00;95657.47;5092391;28;20227;-60
2022/05/19 04:40:12;;;;;;;9.30;7.23;;;;;;;9.93;100.00;95670.47;5092078;28;20233;-61
2022/05/19 04:42:38;;;;;;;9.37;7.47;;;;;;;9.79;100.00;95659.59;5092437;28;20203;-59
2022/05/19 04:45:05;;;;;;;12.47;6.93;;;;;;;9.83;100.00;95676.25;5092056;28;20172;-61
2022/05/19 04:47:31;;;;;;;9.20;7.03;;;;;;;9.67;100.00;95652.78;5096931;22;20227;-61
2022/05/19 04:49:57;;;;;;;8.03;6.77;;;;;;;9.52;100.00;95639.34;5091960;28;20642;-60
2022/05/19 04:52:22;;;;;;;13.27;7.63;;;;;;;9.43;100.00;95639.13;5090816;28;20188;-60
2022/05/19 04:54:48;;;;;;;9.13;7.20;;;;;;;9.79;100.00;95640.09;5091710;28;20561;-59
2022/05/19 04:57:14;;;;;;;12.03;8.93;;;;;;;9.56;100.00;95656.00;5092256;28;20237;-60
2022/05/19 04:59:41;;;;;;;10.17;8.03;;;;;;;9.19;100.00;95657.53;5091565;28;20176;-61
2022/05/19 05:02:08;;;;;;;12.13;8.70;;;;;;;9.31;100.00;95656.75;5092217;28;20184;-59
2022/05/19 05:04:34;;;;;;;9.43;8.43;;;;;;;9.23;100.00;95653.09;5091820;28;20193;-61
2022/05/19 05:07:00;;;;;;;13.97;7.87;;;;;;;9.45;100.00;95660.16;5090612;28;20207;-61
2022/05/19 05:09:25;;;;;;;12.67;8.83;;;;;;;9.09;100.00;95666.63;5073882;28;20310;-59
2022/05/19 05:11:51;;;;;;;13.70;8.97;;;;;;;9.03;100.00;95668.75;5090470;28;20211;-60
2022/05/19 05:14:17;;;;;;;15.37;8.73;;;;;;;9.09;100.00;95669.16;5091563;28;20204;-62
2022/05/19 05:16:51;;;;;;;9.17;8.20;;;;;;;8.85;100.00;95667.34;5091786;28;20183;-62
2022/05/19 05:19:19;;;;;;;11.63;8.90;;;;;;;9.31;100.00;95669.44;5091763;28;20204;-59
2022/05/19 05:21:58;;;;;;;12.67;9.57;;;;;;;9.19;100.00;95672.75;5094419;28;20229;-60
2022/05/19 05:24:24;;;;;;;14.53;9.13;;;;;;;9.46;100.00;95667.66;5095334;28;20703;-61
2022/05/19 05:26:50;;;;;;;15.43;8.13;;;;;;;9.44;100.00;95676.28;5095455;28;20200;-61
2022/05/19 05:29:15;;;;;;;11.23;8.13;;;;;;;9.55;100.00;95666.25;5095284;28;20421;-59
2022/05/19 05:31:41;;;;;;;15.03;9.27;;;;;;;9.60;100.00;95666.75;5095619;28;20546;-62
2022/05/19 05:34:06;;;;;;;12.33;8.67;;;;;;;10.24;100.00;95698.97;5094869;28;20333;-59
2022/05/19 05:36:32;;;;;;;13.93;8.83;;;;;;;9.90;100.00;95688.44;5094064;28;20209;-60
2022/05/19 05:38:58;;;;;;;11.33;8.33;;;;;;;9.76;100.00;95670.75;5094937;28;20192;-62
2022/05/19 05:41:24;;;;;;;17.40;8.33;;;;;;;9.78;100.00;95676.53;5095608;28;20203;-59
2022/05/19 05:43:50;;;;;;;10.23;7.83;;;;;;;9.81;100.00;95676.34;5095215;28;20681;-60
2022/05/19 05:46:15;;;;;;;12.40;8.10;;;;;;;9.58;100.00;95674.47;5094912;28;20198;-60
2022/05/19 05:48:42;;;;;;;14.60;8.63;;;;;;;9.17;100.00;95689.00;5094729;28;20284;-59
2022/05/19 05:51:10;;;;;;;11.23;8.43;;;;;;;9.39;100.00;95684.22;5095143;28;20234;-60
2022/05/19 05:53:37;;;;;;;15.17;10.37;;;;;;;9.37;100.00;95682.66;5094771;28;20214;-60
2022/05/19 05:56:04;;;;;;;13.13;8.37;;;;;;;9.64;100.00;95689.31;5095178;28;20273;-61
2022/05/19 05:58:30;;;;;;;13.17;9.03;;;;;;;9.42;100.00;95690.78;5094385;28;20208;-60
2022/05/19 06:00:56;;;;;;;14.97;8.73;;;;;;;9.38;100.00;95687.63;5094787;28;20223;-59
2022/05/19 06:03:21;;;;;;;16.17;8.60;;;;;;;9.65;100.00;95692.69;5094689;28;20216;-58
2022/05/19 06:05:47;;;;;;;21.27;9.70;;;;;;;9.70;100.00;95696.53;5094588;28;20630;-62
2022/05/19 06:08:12;;;;;;;11.07;7.80;;;;;;;10.05;100.00;95697.59;5094292;28;20188;-62
2022/05/19 06:10:38;;;;;;;14.17;8.50;;;;;;;9.97;100.00;95697.31;5094775;28;20180;-61
2022/05/19 06:13:04;;;;;;;10.40;8.97;;;;;;;10.20;100.00;95697.53;5094516;28;20287;-59
2022/05/19 06:15:30;;;;;;;15.73;9.87;;;;;;;10.34;100.00;95697.44;5092953;28;20296;-61
2022/05/19 06:17:55;;;;;;;14.50;9.80;;;;;;;10.46;100.00;95694.88;5094298;28;20199;-60
2022/05/19 06:20:21;;;;;;;17.17;9.27;;;;;;;10.30;100.00;95698.56;5092913;28;20703;-62
2022/05/19 06:22:47;;;;;;;12.07;9.57;;;;;;;10.20;100.00;95692.47;5094096;28;20693;-62
2022/05/19 06:25:16;;;;;;;13.77;9.07;;;;;;;10.12;100.00;95711.56;5093998;28;20177;-61
2022/05/19 06:27:42;;;;;;;29.87;9.90;;;;;;;9.98;100.00;95704.00;5094035;28;20208;-61
2022/05/19 06:30:09;;;;;;;14.83;10.27;;;;;;;9.91;100.00;95707.88;5093629;28;20176;-59
2022/05/19 06:32:36;;;;;;;12.17;9.70;;;;;;;10.24;100.00;95714.22;5094439;28;20204;-60
2022/05/19 06:35:01;;;;;;;15.30;9.13;;;;;;;10.48;100.00;95707.50;5093853;28;20211;-59
2022/05/19 06:37:27;;;;;;;18.13;9.77;;;;;;;10.82;100.00;95727.16;5094385;28;20184;-62
2022/05/19 06:39:52;;;;;;;14.00;9.23;;;;;;;10.58;100.00;95723.75;5092519;28;20662;-60
2022/05/19 06:42:18;;;;;;;17.10;10.43;;;;;;;10.69;100.00;95726.34;5094337;28;20194;-59
2022/05/19 06:44:44;;;;;;;14.47;10.20;;;;;;;11.14;100.00;95742.75;5093828;28;20186;-62
2022/05/19 06:47:14;;;;;;;15.63;10.30;;;;;;;11.39;100.00;95733.28;5092285;28;20192;-60
2022/05/19 06:49:46;;;;;;;14.57;10.23;;;;;;;11.53;100.00;95719.59;5093747;28;20183;-61
2022/05/19 06:52:23;;;;;;;18.37;10.30;;;;;;;11.63;100.00;95729.03;5094282;28;20206;-60
2022/05/19 06:54:51;;;;;;;44.40;12.13;;;;;;;11.28;100.00;95725.59;5093519;28;20230;-60
2022/05/19 06:57:19;;;;;;;14.00;10.47;;;;;;;11.42;100.00;95733.09;5093922;28;20199;-60
2022/05/19 06:59:45;;;;;;;15.57;11.10;;;;;;;11.63;100.00;95743.50;5093663;28;20180;-59
2022/05/19 07:02:11;;;;;;;11.53;9.37;;;;;;;11.62;100.00;95764.75;5093836;28;20704;-60
2022/05/19 07:04:38;;;;;;;18.03;9.03;;;;;;;11.40;100.00;95754.47;5093010;28;20204;-59
2022/05/19 07:07:06;;;;;;;10.67;8.97;;;;;;;11.73;100.00;95770.78;5093741;28;20185;-62
2022/05/19 07:09:35;;;;;;;9.23;7.93;;;;;;;11.58;100.00;95768.44;5093418;28;20196;-60
2022/05/19 07:12:01;;;;;;;16.90;8.70;;;;;;;11.52;100.00;95763.78;5093688;28;20185;-62
2022/05/19 07:14:27;;;;;;;11.83;7.90;;;;;;;11.56;97.98;95804.22;5092942;28;20208;-61
2022/05/19 07:16:53;;;;;;;13.47;7.57;;;;;;;11.99;97.05;95793.56;5093515;28;20180;-60
2022/05/19 07:22:08;;;;;;;17.73;9.37;;;;;;;12.24;97.82;95780.69;5093129;28;20276;-63
2022/05/19 07:24:33;;;;;;;10.90;7.80;;;;;;;12.33;94.45;95810.59;5091588;28;20639;-59
2022/05/19 07:27:00;;;;;;;12.27;6.90;;;;;;;12.43;97.13;95773.28;5093636;28;20177;-58
2022/05/19 07:29:26;;;;;;;15.07;7.43;;;;;;;12.59;95.30;95792.44;5092679;28;20264;-59
2022/05/19 07:32:01;;;;;;;9.57;6.57;;;;;;;12.65;93.32;95829.44;5092743;28;20192;-59
2022/05/19 07:34:28;;;;;;;9.20;6.17;;;;;;;12.47;89.80;95846.09;5097786;22;20769;-61
2022/05/19 07:36:55;;;;;;;8.43;6.97;;;;;;;13.08;87.79;95858.53;5092658;28;20176;-60
2022/05/19 07:39:22;;;;;;;11.47;6.63;;;;;;;13.18;89.60;95810.94;5093179;28;20215;-60
2022/05/19 07:41:48;;;;;;;13.67;6.30;;;;;;;12.76;88.80;95808.25;5091896;28;20657;-60
2022/05/19 07:44:15;;;;;;;10.43;7.17;;;;;;;12.86;90.51;95786.19;5084323;23;20307;-61
2022/05/19 07:46:42;;;;;;;9.63;6.73;;;;;;;13.23;87.32;95836.94;5092873;28;20176;-60
2022/05/19 07:49:07;;;;;;;7.93;6.17;;;;;;;13.29;90.23;95782.03;5092758;28;20273;-60
2022/05/19 07:51:36;;;;;;;11.57;5.77;;;;;;;13.73;84.27;95885.91;5092483;28;20168;-61
2022/05/19 07:54:26;;;;;;;7.23;5.73;;;;;;;13.24;83.68;95853.06;5092800;28;20240;-60
2022/05/19 07:56:52;;;;;;;9.70;6.30;;;;;;;13.43;87.64;95797.09;5092234;28;20180;-60
2022/05/19 07:59:19;;;;;;;7.53;6.30;;;;;;;13.64;83.79;95846.53;5092821;28;20210;-59
2022/05/19 08:01:46;;;;;;;12.93;6.20;;;;;;;13.76;83.92;95845.56;5092209;28;20180;-59
2022/05/19 08:04:13;;;;;;;14.83;6.03;;;;;;;14.08;82.53;95876.28;5092619;28;20206;-59
2022/05/19 08:06:39;;;;;;;12.63;5.73;;;;;;;14.08;81.06;95889.06;5092257;28;20206;-60
2022/05/19 08:11:52;;;;;;;7.43;5.27;;;;;;;14.52;79.20;95896.63;5070864;28;20196;-60
2022/05/19 08:17:03;;;;;;;5.55;4.93;;;;;;;14.79;78.65;95899.50;5092459;28;20175;-59
2022/05/19 08:19:29;;;;;;;10.90;4.67;;;;;;;14.87;74.58;95961.16;5092370;28;20287;-62
2022/05/19 08:21:55;;;;;;;10.85;4.40;;;;;;;15.20;71.86;95982.41;5091927;28;20627;-59
2022/05/19 08:24:24;;;;;;;11.30;4.53;;;;;;;15.31;71.72;95969.53;5092282;28;20261;-59
2022/05/19 08:26:50;;;;;;;6.07;3.88;;;;;;;15.32;72.65;95942.97;5091811;28;20180;-60
2022/05/19 08:29:18;;;;;;;6.43;3.60;;;;;;;15.05;63.54;96082.59;5090504;28;20269;-59
2022/05/19 08:31:45;;;;;;;9.40;3.35;;;;;;;15.22;62.82;96075.31;5091622;28;20263;-62
2022/05/19 08:34:13;;;;;;;3.65;2.35;;;;;;;15.46;59.63;96094.69;5092136;28;20215;-61
2022/05/19 08:36:39;;;;;;;2.90;1.70;;;;;;;15.52;55.41;96104.44;5092032;28;20255;-61
2022/05/19 08:39:05;;;;;;;3.90;1.75;;;;;;;16.00;55.12;96086.00;5092143;28;20222;-59
2022/05/19 08:41:37;;;;;;;2.47;1.30;;;;;;;16.18;50.72;96159.66;5090568;28;20165;-59
2022/05/19 08:44:16;;;;;;;3.10;1.05;;;;;;;16.20;48.67;96190.34;5096646;22;20227;-62
2022/05/19 08:46:47;;;;;;;2.50;1.20;;;;;;;16.19;45.23;96201.53;5092063;28;20183;-61
2022/05/19 08:49:41;;;;;;;2.00;1.80;;;;;;;15.95;48.55;96082.06;5092206;28;20283;-59
2022/05/19 08:52:14;;;;;;;6.75;2.00;;;;;;;15.73;50.92;96002.72;5064276;28;20243;-62
2022/05/19 08:54:43;;;;;;;2.42;1.90;;;;;;;15.70;49.20;96041.41;5096445;28;20215;-60
2022/05/19 08:57:20;;;;;;;3.55;2.20;;;;;;;16.16;49.97;96009.34;5095866;28;20180;-63
2022/05/19 09:00:04;;;;;;;1.92;1.45;;;;;;;16.02;49.42;96020.78;5095765;28;20175;-59
2022/05/19 09:03:05;;;;;;;1.67;1.38;;;;;;;16.40;52.53;95935.38;5095460;28;20263;-59
2022/05/19 09:05:45;;;;;;;6.97;2.03;;;;;;;17.02;49.37;96017.22;5095854;28;20266;-60
2022/05/19 09:08:45;;;;;;;3.40;1.50;;;;;;;17.35;46.64;96078.50;5095889;28;20211;-59
2022/05/19 09:11:18;;;;;;;4.60;1.25;;;;;;;17.61;47.65;96043.59;5095738;28;20188;-61
2022/05/19 09:13:53;;;;;;;3.22;1.30;;;;;;;17.86;48.15;96006.13;5095582;28;20232;-63
2022/05/19 09:16:24;;;;;;;2.08;1.20;;;;;;;17.85;42.49;96154.56;5095737;28;20180;-60
2022/05/19 09:19:06;;;;;;;3.65;1.50;;;;;;;17.51;41.84;96053.88;5095675;28;20271;-60
2022/05/19 09:21:32;;;;;;;3.22;1.23;;;;;;;17.18;41.43;95999.47;5095390;28;20496;-60
2022/05/19 09:23:57;;;;;;;3.15;1.17;;;;;;;17.73;42.72;95973.00;5095259;28;20223;-60
2022/05/19 09:26:31;;;;;;;3.35;1.20;;;;;;;18.13;40.62;96001.81;5094312;28;20180;-60
2022/05/19 09:29:01;;;;;;;3.25;1.63;;;;;;;18.57;45.32;95893.81;5093824;28;20653;-62
2022/05/19 09:31:53;;;;;;;2.55;1.17;;;;;;;18.70;42.31;95962.06;5095106;28;20173;-64
2022/05/19 09:34:24;;;;;;;1.30;1.20;;;;;;;18.55;42.20;95940.34;5095289;28;20210;-62
2022/05/19 09:37:01;;;;;;;1.45;1.23;;;;;;;19.16;43.66;95912.81;5095118;28;20211;-61
2022/05/19 09:39:36;;;;;;;1.95;1.42;;;;;;;19.48;43.03;95927.72;5093651;28;20200;-62
2022/05/19 09:42:08;;;;;;;3.33;1.50;;;;;;;19.21;43.71;95896.88;5094798;28;20171;-61
2022/05/19 09:44:36;;;;;;;1.70;1.25;;;;;;;19.29;40.80;95963.97;5093823;28;20241;-60
2022/05/19 09:47:16;;;;;;;5.20;1.45;;;;;;;19.52;40.88;95965.13;5094672;28;20672;-60
2022/05/19 09:49:51;;;;;;;2.13;1.33;;;;;;;19.88;41.86;95921.91;5094667;28;20246;-61
2022/05/19 09:52:23;;;;;;;3.92;1.38;;;;;;;19.91;42.13;95924.19;5092926;28;20172;-59
2022/05/19 09:54:58;;;;;;;6.10;1.73;;;;;;;20.46;41.80;95929.72;5094779;28;20196;-63
2022/05/19 09:57:47;;;;;;;5.35;1.67;;;;;;;20.47;41.21;95928.75;5093260;28;20184;-60
2022/05/19 10:03:03;;;;;;;1.98;1.10;;;;;;;20.63;38.77;95970.13;5099730;22;20330;-62
2022/05/19 10:05:48;;;;;;;2.55;1.50;;;;;;;20.67;38.77;95971.41;5093692;28;20552;-59
2022/05/19 10:08:39;;;;;;;1.40;1.30;;;;;;;20.51;38.02;95961.03;5094487;28;20192;-59
2022/05/19 10:11:12;;;;;;;3.00;1.65;;;;;;;19.99;38.24;95945.72;5094632;28;20201;-60
2022/05/19 10:13:46;;;;;;;4.00;1.30;;;;;;;20.72;39.81;95897.63;5094318;28;20200;-60
2022/05/19 10:16:33;;;;;;;3.38;1.58;;;;;;;20.56;36.34;95984.66;5094715;28;20179;-61
2022/05/19 10:19:23;;;;;;;2.40;1.20;;;;;;;20.76;38.33;95922.19;5093057;28;20234;-61
2022/05/19 10:22:07;;;;;;;2.15;1.48;;;;;;;20.93;41.02;95846.19;5092965;28;20196;-60
2022/05/19 10:24:47;;;;;;;2.10;1.60;;;;;;;21.22;44.25;95793.16;5093888;28;20222;-60
2022/05/19 10:33:13;;;;;;;2.83;1.20;;;;;;;22.27;37.56;95922.97;5093989;28;20210;-62
2022/05/19 10:36:05;;;;;;;2.70;1.38;;;;;;;21.23;35.14;95958.53;5093793;28;20227;-60
2022/05/19 10:38:42;;;;;;;1.33;1.20;;;;;;;20.29;35.67;95930.63;5093779;28;20203;-58
2022/05/19 10:41:10;;;;;;;1.77;1.50;;;;;;;20.37;36.08;95913.41;5093945;28;20656;-62
2022/05/19 10:43:39;;;;;;;2.75;1.45;;;;;;;19.69;35.72;95923.00;5092251;28;20251;-62
2022/05/19 10:46:10;;;;;;;2.40;1.10;;;;;;;19.77;36.69;95884.31;5092487;28;20565;-60
2022/05/19 10:48:58;;;;;;;1.92;1.35;;;;;;;20.05;35.57;95918.44;5093527;28;20745;-60
2022/05/19 10:51:24;;;;;;;3.85;1.33;;;;;;;19.93;37.02;95871.47;5093644;28;20180;-60
2022/05/19 10:54:14;;;;;;;6.43;1.63;;;;;;;20.40;37.27;95874.31;5093473;28;20200;-62
2022/05/19 10:56:59;;;;;;;1.40;1.30;;;;;;;20.76;34.84;95926.53;5093675;28;20196;-61
2022/05/19 10:59:46;;;;;;;2.67;1.23;;;;;;;20.88;36.91;95865.78;5092135;28;20689;-62
2022/05/19 11:02:17;;;;;;;2.15;1.20;;;;;;;21.62;36.58;95888.75;5091852;28;20654;-60
2022/05/19 11:04:52;;;;;;;4.55;1.55;;;;;;;21.57;36.76;95865.94;5091927;28;20173;-62
2022/05/19 11:07:42;;;;;;;1.63;1.00;;;;;;;21.52;36.43;95870.84;5093354;28;20197;-60
2022/05/19 11:10:11;;;;;;;2.35;1.80;;;;;;;21.34;34.70;95911.66;5093585;28;20187;-61
2022/05/19 11:12:36;;;;;;;1.88;1.65;;;;;;;21.46;34.35;95925.03;5093856;28;20200;-59
2022/05/19 11:15:01;;;;;;;2.30;1.55;;;;;;;20.87;35.74;95884.81;5092930;28;20207;-63
2022/05/19 11:17:39;;;;;;;1.45;1.30;;;;;;;20.99;34.55;95906.00;5093544;28;20192;-62
2022/05/19 11:20:14;;;;;;;3.20;1.45;;;;;;;21.70;33.77;95915.44;5092966;28;20168;-62
2022/05/19 11:22:41;;;;;;;4.28;1.52;;;;;;;21.74;34.78;95890.81;5093401;28;20208;-61
2022/05/19 11:28:03;;;;;;;6.03;1.70;;;;;;;22.54;32.43;95943.25;5093053;28;20274;-61
2022/05/19 11:30:47;;;;;;;4.47;1.30;;;;;;;22.70;33.66;95896.50;5092955;28;20238;-61
2022/05/19 11:33:18;;;;;;;2.58;0.93;;;;;;;22.65;33.82;95890.19;5091466;28;20207;-59
2022/05/19 11:35:47;;;;;;;5.18;1.70;;;;;;;23.16;35.20;95842.75;5092901;28;20238;-61
2022/05/19 11:38:21;;;;;;;2.90;1.67;;;;;;;23.57;36.55;95797.22;5092747;28;20195;-64
2022/05/19 11:40:55;;;;;;;2.17;1.40;;;;;;;23.41;36.24;95799.19;5092772;28;20242;-59
2022/05/19 11:43:41;;;;;;;6.30;1.80;;;;;;;23.76;33.84;95884.13;5092652;28;20192;-61
2022/05/19 11:46:12;;;;;;;1.92;1.50;;;;;;;23.49;33.26;95864.81;5091303;28;20278;-60
2022/05/19 11:57:21;;;;;;;5.03;1.50;;;;;;;23.81;29.81;95920.78;5092877;28;20598;-59
2022/05/19 11:59:48;;;;;;;3.63;1.70;;;;;;;23.14;30.58;95881.84;5092369;28;20187;-59
2022/05/19 12:02:18;;;;;;;4.07;1.10;;;;;;;23.34;30.12;95897.75;5092362;28;20237;-61
2022/05/19 12:04:47;;;;;;;4.65;1.60;;;;;;;22.41;31.04;95863.47;5074563;28;20636;-60
2022/05/19 12:07:23;;;;;;;1.42;1.10;;;;;;;23.20;31.00;95850.00;5092826;28;20241;-60
2022/05/19 12:09:53;;;;;;;1.67;1.50;;;;;;;23.11;32.35;95825.09;5092315;28;20160;-59
2022/05/19 12:12:32;;;;;;;3.60;1.48;;;;;;;22.84;30.98;95856.84;5091192;28;20180;-61